createdAt,value
2022-12-08T00:19:20.172Z,2.44
2022-12-08T00:49:20.170Z,2.25
2022-12-08T01:19:20.166Z,2
2022-12-08T01:49:20.177Z,1.75
2022-12-08T02:19:30.893Z,1.56
2022-12-08T02:49:20.189Z,1.06
2022-12-08T03:19:20.193Z,1.31
2022-12-08T03:49:20.213Z,1.5
2022-12-08T04:19:20.192Z,1.38
2022-12-08T04:49:20.198Z,1.38
2022-12-08T05:19:20.208Z,1.25
2022-12-08T05:49:20.207Z,1.31
2022-12-08T06:19:20.215Z,1.31
2022-12-08T06:49:20.225Z,1.06
2022-12-08T07:19:20.221Z,1.06
2022-12-08T07:49:20.223Z,1.19
2022-12-08T08:19:20.234Z,1.5
2022-12-08T08:49:20.235Z,1.81
2022-12-08T09:19:20.251Z,2.06
2022-12-08T09:49:20.251Z,2.5
2022-12-08T10:19:20.255Z,2.75
2022-12-08T10:49:20.252Z,2.88
2022-12-08T11:19:20.253Z,3
2022-12-08T11:49:20.248Z,3.06
2022-12-08T12:19:20.251Z,3.31
2022-12-08T12:49:20.272Z,3.19
2022-12-08T13:19:20.271Z,3.38
2022-12-08T14:19:20.283Z,3.13
2022-12-08T14:49:20.291Z,2.88
2022-12-08T15:19:20.319Z,2.63
2022-12-08T15:49:20.307Z,2.63
2022-12-08T16:19:20.316Z,2.63
2022-12-08T16:49:20.329Z,2.63
2022-12-08T17:19:20.325Z,2.63
2022-12-08T17:49:20.339Z,2.81
2022-12-08T18:19:20.336Z,2.69
2022-12-08T18:49:20.338Z,2.44
2022-12-08T19:19:20.337Z,2.13
2022-12-08T19:49:20.354Z,2.13
2022-12-08T20:19:20.349Z,2.06
2022-12-08T21:01:54.000Z,1.56
2022-12-08T21:31:53.814Z,1.69
2022-12-08T22:01:53.829Z,1.25
2022-12-08T22:31:53.735Z,0.75
2022-12-08T23:01:53.973Z,0.13
2022-12-08T23:31:53.820Z,-0.19
